首页
METAR-TAF:

METAR-TAF

机场 :

布尔戈斯, 西班牙

纬度: 42-22N, 经度: 003-38W, 海拔: 894米

当前天气观测

该预报发布于11分钟前的05:00 UTC
风速6节,风向东北,在东转东北之间变化
温度 1°C
湿度 100%
气压 1021 hPa
能見度: 7000
阴天层高于300英尺

METAR: LEBG 220500Z AUTO 04006KT 360V070 7000 OVC003 01/01 Q1021

时间: 06:11 (05:11 UTC)

预报

该预报发布于3小时和11分钟前的02:00 UTC
预报有效从22日的 03点(UTC)到 22日的 12点(UTC)
风速12节,风向东北
能見度: 3000
多云层高于600英尺
碎片雾
短暂存在
从 22日的 03点(UTC)到 22日的 11点(UTC)
能見度: 0350
阴天层高于100英尺
短暂存在
从 22日的 03点(UTC)到 22日的 06点(UTC)
能見度: 1400
多云层高于300英尺
雨, 雪
短暂存在
从 22日的 10点(UTC)到 22日的 12点(UTC)
能见度10公里或以上

TAF: LEBG 220200Z 2203/2212 05012KT 3000 BCFG BKN006 TEMPO 2203/2211 0350 FG OVC001 TEMPO 2203/2206 1400 RASN BKN003 TEMPO 2210/2212 9999 NSW

超过4000个机场的气象观测和天气预报(METAR&TAF报告)。

可查询的气象台以黄色和红色小点在地图上表示。

将鼠标移到小点上方,可查看气象台名称。

然后点击查看天气观测和预报。

如需切换地图:点击带黑十字的绿色按钮放大地图;点击带横线的绿色按钮缩小地图;或者点击绿色箭头查看邻近地区的地图。


METAR-TAF: